sensor_id;sensor_type;location;lat;lon;timestamp;P1;durP1;ratioP1;P2;durP2;ratioP2
31224;SDS011;17847;31.524;74.366;2024-03-06T00:02:01;54.13;;;32.67;;
31224;SDS011;17847;31.524;74.366;2024-03-06T00:04:31;58.35;;;32.30;;
31224;SDS011;17847;31.524;74.366;2024-03-06T00:07:00;57.00;;;32.92;;
31224;SDS011;17847;31.524;74.366;2024-03-06T00:09:30;51.95;;;32.00;;
31224;SDS011;17847;31.524;74.366;2024-03-06T00:11:59;58.95;;;33.65;;
31224;SDS011;17847;31.524;74.366;2024-03-06T00:14:29;52.30;;;31.42;;
31224;SDS011;17847;31.524;74.366;2024-03-06T00:16:58;54.10;;;33.30;;
31224;SDS011;17847;31.524;74.366;2024-03-06T00:19:28;52.72;;;32.30;;
31224;SDS011;17847;31.524;74.366;2024-03-06T00:21:57;51.55;;;31.80;;
31224;SDS011;17847;31.524;74.366;2024-03-06T00:24:27;52.95;;;31.42;;
31224;SDS011;17847;31.524;74.366;2024-03-06T00:26:56;49.42;;;31.17;;
31224;SDS011;17847;31.524;74.366;2024-03-06T00:29:26;57.25;;;32.85;;
31224;SDS011;17847;31.524;74.366;2024-03-06T00:31:59;50.10;;;30.75;;
31224;SDS011;17847;31.524;74.366;2024-03-06T00:34:29;47.50;;;30.77;;
31224;SDS011;17847;31.524;74.366;2024-03-06T00:37:00;45.42;;;30.48;;
31224;SDS011;17847;31.524;74.366;2024-03-06T00:39:29;47.05;;;29.50;;
31224;SDS011;17847;31.524;74.366;2024-03-06T00:41:59;53.03;;;31.60;;
31224;SDS011;17847;31.524;74.366;2024-03-06T00:44:28;50.17;;;29.83;;
31224;SDS011;17847;31.524;74.366;2024-03-06T00:46:58;46.08;;;29.13;;
31224;SDS011;17847;31.524;74.366;2024-03-06T00:49:28;41.42;;;28.38;;
31224;SDS011;17847;31.524;74.366;2024-03-06T00:51:57;49.15;;;26.95;;
31224;SDS011;17847;31.524;74.366;2024-03-06T00:54:27;43.50;;;26.52;;
31224;SDS011;17847;31.524;74.366;2024-03-06T00:56:57;38.92;;;27.30;;
31224;SDS011;17847;31.524;74.366;2024-03-06T00:59:28;40.22;;;26.17;;
31224;SDS011;17847;31.524;74.366;2024-03-06T01:01:57;47.33;;;29.08;;
31224;SDS011;17847;31.524;74.366;2024-03-06T01:04:27;43.80;;;27.58;;
31224;SDS011;17847;31.524;74.366;2024-03-06T01:06:56;43.08;;;27.80;;
31224;SDS011;17847;31.524;74.366;2024-03-06T01:09:26;49.78;;;27.85;;
31224;SDS011;17847;31.524;74.366;2024-03-06T01:11:56;47.15;;;29.08;;
31224;SDS011;17847;31.524;74.366;2024-03-06T01:14:25;51.58;;;27.98;;
31224;SDS011;17847;31.524;74.366;2024-03-06T01:16:55;50.92;;;28.02;;
31224;SDS011;17847;31.524;74.366;2024-03-06T01:19:24;52.30;;;29.02;;
31224;SDS011;17847;31.524;74.366;2024-03-06T01:21:53;48.03;;;28.17;;
31224;SDS011;17847;31.524;74.366;2024-03-06T01:24:23;46.53;;;28.88;;
31224;SDS011;17847;31.524;74.366;2024-03-06T01:26:52;54.45;;;29.65;;
31224;SDS011;17847;31.524;74.366;2024-03-06T01:29:22;54.90;;;30.92;;
31224;SDS011;17847;31.524;74.366;2024-03-06T01:31:51;57.00;;;31.33;;
31224;SDS011;17847;31.524;74.366;2024-03-06T01:34:20;53.30;;;30.13;;
31224;SDS011;17847;31.524;74.366;2024-03-06T01:36:53;55.67;;;30.42;;
31224;SDS011;17847;31.524;74.366;2024-03-06T01:39:23;55.47;;;32.45;;
31224;SDS011;17847;31.524;74.366;2024-03-06T01:41:52;57.88;;;31.90;;
31224;SDS011;17847;31.524;74.366;2024-03-06T01:44:22;62.40;;;33.10;;
31224;SDS011;17847;31.524;74.366;2024-03-06T01:46:51;72.10;;;32.85;;
31224;SDS011;17847;31.524;74.366;2024-03-06T01:49:20;53.75;;;31.33;;
31224;SDS011;17847;31.524;74.366;2024-03-06T01:52:03;61.75;;;33.28;;
31224;SDS011;17847;31.524;74.366;2024-03-06T01:54:32;56.30;;;32.80;;
31224;SDS011;17847;31.524;74.366;2024-03-06T01:57:02;66.75;;;33.80;;
31224;SDS011;17847;31.524;74.366;2024-03-06T01:59:32;69.05;;;33.47;;
31224;SDS011;17847;31.524;74.366;2024-03-06T02:02:04;57.92;;;31.10;;
31224;SDS011;17847;31.524;74.366;2024-03-06T02:04:37;54.53;;;31.63;;
31224;SDS011;17847;31.524;74.366;2024-03-06T02:07:10;55.97;;;30.05;;
31224;SDS011;17847;31.524;74.366;2024-03-06T02:09:40;60.88;;;32.35;;
31224;SDS011;17847;31.524;74.366;2024-03-06T02:12:09;56.13;;;30.55;;
31224;SDS011;17847;31.524;74.366;2024-03-06T02:14:39;65.85;;;31.02;;
31224;SDS011;17847;31.524;74.366;2024-03-06T02:17:08;50.95;;;31.05;;
31224;SDS011;17847;31.524;74.366;2024-03-06T02:19:41;53.17;;;31.52;;
31224;SDS011;17847;31.524;74.366;2024-03-06T02:22:13;52.00;;;31.20;;
31224;SDS011;17847;31.524;74.366;2024-03-06T02:24:48;58.60;;;30.98;;
31224;SDS011;17847;31.524;74.366;2024-03-06T02:27:18;55.72;;;30.67;;
31224;SDS011;17847;31.524;74.366;2024-03-06T02:29:47;53.80;;;29.55;;
31224;SDS011;17847;31.524;74.366;2024-03-06T02:32:16;55.67;;;32.65;;
31224;SDS011;17847;31.524;74.366;2024-03-06T02:34:46;61.80;;;30.92;;
31224;SDS011;17847;31.524;74.366;2024-03-06T02:37:16;52.03;;;29.63;;
31224;SDS011;17847;31.524;74.366;2024-03-06T02:39:46;45.97;;;29.85;;
31224;SDS011;17847;31.524;74.366;2024-03-06T02:42:16;55.92;;;29.70;;
31224;SDS011;17847;31.524;74.366;2024-03-06T02:44:45;49.38;;;29.65;;
31224;SDS011;17847;31.524;74.366;2024-03-06T02:47:15;39.22;;;28.33;;
31224;SDS011;17847;31.524;74.366;2024-03-06T02:49:44;49.80;;;29.08;;
31224;SDS011;17847;31.524;74.366;2024-03-06T02:52:14;45.17;;;28.70;;
31224;SDS011;17847;31.524;74.366;2024-03-06T02:54:43;43.80;;;28.23;;
31224;SDS011;17847;31.524;74.366;2024-03-06T02:57:13;55.10;;;27.33;;
31224;SDS011;17847;31.524;74.366;2024-03-06T02:59:42;45.47;;;28.35;;
31224;SDS011;17847;31.524;74.366;2024-03-06T03:02:11;42.38;;;27.80;;
31224;SDS011;17847;31.524;74.366;2024-03-06T03:04:41;52.00;;;26.92;;
31224;SDS011;17847;31.524;74.366;2024-03-06T03:07:11;47.08;;;28.48;;
31224;SDS011;17847;31.524;74.366;2024-03-06T03:09:40;46.80;;;28.45;;
31224;SDS011;17847;31.524;74.366;2024-03-06T03:12:10;58.00;;;30.45;;
31224;SDS011;17847;31.524;74.366;2024-03-06T03:14:40;49.70;;;28.67;;
31224;SDS011;17847;31.524;74.366;2024-03-06T03:17:10;40.03;;;26.65;;
31224;SDS011;17847;31.524;74.366;2024-03-06T03:19:39;39.45;;;23.38;;
31224;SDS011;17847;31.524;74.366;2024-03-06T03:22:09;43.45;;;23.02;;
31224;SDS011;17847;31.524;74.366;2024-03-06T03:24:38;33.55;;;22.85;;
31224;SDS011;17847;31.524;74.366;2024-03-06T03:27:10;38.67;;;22.73;;
31224;SDS011;17847;31.524;74.366;2024-03-06T03:29:40;31.00;;;21.20;;
31224;SDS011;17847;31.524;74.366;2024-03-06T03:32:10;33.83;;;20.80;;
31224;SDS011;17847;31.524;74.366;2024-03-06T03:34:39;40.47;;;22.70;;
31224;SDS011;17847;31.524;74.366;2024-03-06T03:37:09;30.25;;;21.88;;
31224;SDS011;17847;31.524;74.366;2024-03-06T03:39:38;33.22;;;22.27;;
31224;SDS011;17847;31.524;74.366;2024-03-06T03:42:08;39.00;;;23.42;;
31224;SDS011;17847;31.524;74.366;2024-03-06T03:44:37;39.58;;;21.52;;
31224;SDS011;17847;31.524;74.366;2024-03-06T03:47:08;40.70;;;21.55;;
31224;SDS011;17847;31.524;74.366;2024-03-06T03:49:37;35.88;;;22.23;;
31224;SDS011;17847;31.524;74.366;2024-03-06T03:52:07;31.73;;;20.17;;
31224;SDS011;17847;31.524;74.366;2024-03-06T03:54:37;39.55;;;20.15;;
31224;SDS011;17847;31.524;74.366;2024-03-06T03:57:06;28.73;;;20.42;;
31224;SDS011;17847;31.524;74.366;2024-03-06T03:59:37;32.65;;;21.52;;
31224;SDS011;17847;31.524;74.366;2024-03-06T04:02:09;35.77;;;22.07;;
31224;SDS011;17847;31.524;74.366;2024-03-06T04:04:39;40.78;;;22.77;;
31224;SDS011;17847;31.524;74.366;2024-03-06T04:07:09;26.23;;;19.23;;
31224;SDS011;17847;31.524;74.366;2024-03-06T04:09:38;30.63;;;19.17;;
31224;SDS011;17847;31.524;74.366;2024-03-06T04:12:08;32.30;;;20.10;;
31224;SDS011;17847;31.524;74.366;2024-03-06T04:14:38;28.92;;;18.38;;
31224;SDS011;17847;31.524;74.366;2024-03-06T04:17:08;36.38;;;20.05;;
31224;SDS011;17847;31.524;74.366;2024-03-06T04:19:37;28.63;;;18.35;;
31224;SDS011;17847;31.524;74.366;2024-03-06T04:22:07;28.75;;;17.88;;
31224;SDS011;17847;31.524;74.366;2024-03-06T04:24:36;36.28;;;18.33;;
31224;SDS011;17847;31.524;74.366;2024-03-06T04:27:10;34.33;;;18.48;;
31224;SDS011;17847;31.524;74.366;2024-03-06T04:29:39;35.80;;;19.85;;
31224;SDS011;17847;31.524;74.366;2024-03-06T04:32:09;38.20;;;21.25;;
31224;SDS011;17847;31.524;74.366;2024-03-06T04:34:38;24.80;;;18.23;;
31224;SDS011;17847;31.524;74.366;2024-03-06T04:37:07;28.10;;;20.27;;
31224;SDS011;17847;31.524;74.366;2024-03-06T04:39:37;29.92;;;19.95;;
31224;SDS011;17847;31.524;74.366;2024-03-06T04:42:06;34.92;;;19.63;;
31224;SDS011;17847;31.524;74.366;2024-03-06T04:44:36;32.65;;;20.27;;
31224;SDS011;17847;31.524;74.366;2024-03-06T04:47:05;31.77;;;18.05;;
31224;SDS011;17847;31.524;74.366;2024-03-06T04:49:35;31.13;;;19.27;;
31224;SDS011;17847;31.524;74.366;2024-03-06T04:52:05;31.80;;;19.23;;
31224;SDS011;17847;31.524;74.366;2024-03-06T04:54:34;31.77;;;18.35;;
31224;SDS011;17847;31.524;74.366;2024-03-06T04:57:04;32.22;;;19.73;;
31224;SDS011;17847;31.524;74.366;2024-03-06T04:59:33;28.77;;;18.65;;
31224;SDS011;17847;31.524;74.366;2024-03-06T05:02:03;31.25;;;18.60;;
31224;SDS011;17847;31.524;74.366;2024-03-06T05:04:32;35.78;;;19.75;;
31224;SDS011;17847;31.524;74.366;2024-03-06T05:07:19;33.53;;;20.05;;
31224;SDS011;17847;31.524;74.366;2024-03-06T05:10:05;32.47;;;18.67;;
31224;SDS011;17847;31.524;74.366;2024-03-06T05:12:53;34.83;;;18.77;;
31224;SDS011;17847;31.524;74.366;2024-03-06T05:15:38;27.05;;;17.70;;
31224;SDS011;17847;31.524;74.366;2024-03-06T05:18:25;24.40;;;18.17;;
31224;SDS011;17847;31.524;74.366;2024-03-06T05:21:10;32.92;;;17.67;;
31224;SDS011;17847;31.524;74.366;2024-03-06T05:23:56;27.45;;;15.73;;
31224;SDS011;17847;31.524;74.366;2024-03-06T05:26:42;34.67;;;18.90;;
31224;SDS011;17847;31.524;74.366;2024-03-06T05:29:28;25.83;;;16.92;;
31224;SDS011;17847;31.524;74.366;2024-03-06T05:32:14;24.83;;;15.30;;
31224;SDS011;17847;31.524;74.366;2024-03-06T05:35:00;23.42;;;14.77;;
31224;SDS011;17847;31.524;74.366;2024-03-06T05:37:46;17.60;;;13.70;;
31224;SDS011;17847;31.524;74.366;2024-03-06T05:40:32;16.00;;;10.82;;
31224;SDS011;17847;31.524;74.366;2024-03-06T05:43:22;20.25;;;10.90;;
31224;SDS011;17847;31.524;74.366;2024-03-06T05:46:08;23.35;;;14.32;;
31224;SDS011;17847;31.524;74.366;2024-03-06T05:48:54;26.35;;;13.73;;
31224;SDS011;17847;31.524;74.366;2024-03-06T05:51:40;29.77;;;14.45;;
31224;SDS011;17847;31.524;74.366;2024-03-06T05:54:26;27.00;;;13.65;;
31224;SDS011;17847;31.524;74.366;2024-03-06T05:57:12;22.85;;;13.15;;
31224;SDS011;17847;31.524;74.366;2024-03-06T05:59:59;17.80;;;12.55;;
31224;SDS011;17847;31.524;74.366;2024-03-06T06:02:37;16.83;;;10.82;;
31224;SDS011;17847;31.524;74.366;2024-03-06T06:05:07;12.23;;;9.57;;
31224;SDS011;17847;31.524;74.366;2024-03-06T06:07:50;15.60;;;10.15;;
31224;SDS011;17847;31.524;74.366;2024-03-06T06:10:20;16.00;;;9.10;;
31224;SDS011;17847;31.524;74.366;2024-03-06T06:12:49;17.60;;;10.10;;
31224;SDS011;17847;31.524;74.366;2024-03-06T06:15:18;21.58;;;12.07;;
31224;SDS011;17847;31.524;74.366;2024-03-06T06:17:48;14.82;;;9.65;;
31224;SDS011;17847;31.524;74.366;2024-03-06T06:20:18;33.20;;;9.88;;
31224;SDS011;17847;31.524;74.366;2024-03-06T06:22:47;14.60;;;9.20;;
31224;SDS011;17847;31.524;74.366;2024-03-06T06:25:17;17.13;;;8.25;;
31224;SDS011;17847;31.524;74.366;2024-03-06T06:27:46;11.73;;;8.57;;
31224;SDS011;17847;31.524;74.366;2024-03-06T06:30:17;15.77;;;8.45;;
31224;SDS011;17847;31.524;74.366;2024-03-06T06:32:47;9.52;;;5.40;;
31224;SDS011;17847;31.524;74.366;2024-03-06T06:35:17;16.42;;;7.68;;
31224;SDS011;17847;31.524;74.366;2024-03-06T06:37:46;21.92;;;8.70;;
31224;SDS011;17847;31.524;74.366;2024-03-06T06:40:15;19.75;;;7.28;;
31224;SDS011;17847;31.524;74.366;2024-03-06T06:42:45;14.18;;;7.15;;
31224;SDS011;17847;31.524;74.366;2024-03-06T06:45:18;20.08;;;7.28;;
31224;SDS011;17847;31.524;74.366;2024-03-06T06:47:49;14.57;;;7.50;;
31224;SDS011;17847;31.524;74.366;2024-03-06T06:50:20;9.65;;;7.05;;
31224;SDS011;17847;31.524;74.366;2024-03-06T06:52:54;9.82;;;6.32;;
31224;SDS011;17847;31.524;74.366;2024-03-06T06:55:24;18.25;;;7.82;;
31224;SDS011;17847;31.524;74.366;2024-03-06T06:57:53;13.45;;;7.38;;
31224;SDS011;17847;31.524;74.366;2024-03-06T07:00:23;15.57;;;7.40;;
31224;SDS011;17847;31.524;74.366;2024-03-06T07:02:53;10.50;;;7.32;;
31224;SDS011;17847;31.524;74.366;2024-03-06T07:05:23;13.18;;;7.00;;
31224;SDS011;17847;31.524;74.366;2024-03-06T07:07:52;12.68;;;7.93;;
31224;SDS011;17847;31.524;74.366;2024-03-06T07:10:22;10.55;;;7.18;;
31224;SDS011;17847;31.524;74.366;2024-03-06T07:12:51;17.15;;;7.65;;
31224;SDS011;17847;31.524;74.366;2024-03-06T07:15:21;23.27;;;6.30;;
31224;SDS011;17847;31.524;74.366;2024-03-06T07:17:50;17.50;;;8.25;;
31224;SDS011;17847;31.524;74.366;2024-03-06T07:20:20;13.65;;;6.00;;
31224;SDS011;17847;31.524;74.366;2024-03-06T07:22:49;9.82;;;6.72;;
31224;SDS011;17847;31.524;74.366;2024-03-06T07:25:19;10.10;;;6.38;;
31224;SDS011;17847;31.524;74.366;2024-03-06T07:27:49;10.10;;;6.38;;
31224;SDS011;17847;31.524;74.366;2024-03-06T07:30:19;10.70;;;7.55;;
31224;SDS011;17847;31.524;74.366;2024-03-06T07:32:49;12.20;;;5.75;;
31224;SDS011;17847;31.524;74.366;2024-03-06T07:35:18;11.95;;;5.70;;
31224;SDS011;17847;31.524;74.366;2024-03-06T07:37:48;12.23;;;6.05;;
31224;SDS011;17847;31.524;74.366;2024-03-06T07:40:17;8.63;;;5.60;;
31224;SDS011;17847;31.524;74.366;2024-03-06T07:42:47;8.02;;;5.72;;
31224;SDS011;17847;31.524;74.366;2024-03-06T07:45:16;13.65;;;6.18;;
31224;SDS011;17847;31.524;74.366;2024-03-06T07:47:46;9.65;;;6.13;;
31224;SDS011;17847;31.524;74.366;2024-03-06T07:50:17;8.40;;;6.25;;
31224;SDS011;17847;31.524;74.366;2024-03-06T07:52:49;14.02;;;5.68;;
31224;SDS011;17847;31.524;74.366;2024-03-06T07:55:18;15.20;;;7.00;;
31224;SDS011;17847;31.524;74.366;2024-03-06T07:57:50;11.02;;;5.97;;
31224;SDS011;17847;31.524;74.366;2024-03-06T08:00:19;11.10;;;5.88;;
31224;SDS011;17847;31.524;74.366;2024-03-06T08:02:49;15.85;;;6.15;;
31224;SDS011;17847;31.524;74.366;2024-03-06T08:05:18;9.40;;;6.05;;
31224;SDS011;17847;31.524;74.366;2024-03-06T08:07:50;10.98;;;7.32;;
31224;SDS011;17847;31.524;74.366;2024-03-06T08:10:19;9.95;;;7.55;;
31224;SDS011;17847;31.524;74.366;2024-03-06T08:12:48;10.82;;;7.43;;
31224;SDS011;17847;31.524;74.366;2024-03-06T08:15:18;14.10;;;8.40;;
31224;SDS011;17847;31.524;74.366;2024-03-06T08:17:48;10.65;;;6.85;;
31224;SDS011;17847;31.524;74.366;2024-03-06T08:20:20;10.50;;;6.65;;
31224;SDS011;17847;31.524;74.366;2024-03-06T08:22:49;16.13;;;6.95;;
31224;SDS011;17847;31.524;74.366;2024-03-06T08:25:19;12.88;;;6.45;;
31224;SDS011;17847;31.524;74.366;2024-03-06T08:27:48;14.98;;;7.60;;
31224;SDS011;17847;31.524;74.366;2024-03-06T08:30:18;12.70;;;6.90;;
31224;SDS011;17847;31.524;74.366;2024-03-06T08:32:47;9.65;;;7.45;;
31224;SDS011;17847;31.524;74.366;2024-03-06T08:35:17;10.70;;;7.18;;
31224;SDS011;17847;31.524;74.366;2024-03-06T08:37:50;10.63;;;6.43;;
31224;SDS011;17847;31.524;74.366;2024-03-06T08:40:19;13.15;;;6.43;;
31224;SDS011;17847;31.524;74.366;2024-03-06T08:42:50;10.52;;;6.55;;
31224;SDS011;17847;31.524;74.366;2024-03-06T08:45:19;10.50;;;5.95;;
31224;SDS011;17847;31.524;74.366;2024-03-06T08:47:49;7.63;;;5.40;;
31224;SDS011;17847;31.524;74.366;2024-03-06T08:50:19;10.88;;;6.85;;
31224;SDS011;17847;31.524;74.366;2024-03-06T08:52:48;10.88;;;5.78;;
31224;SDS011;17847;31.524;74.366;2024-03-06T08:55:18;12.80;;;5.93;;
31224;SDS011;17847;31.524;74.366;2024-03-06T08:57:47;13.15;;;6.40;;
31224;SDS011;17847;31.524;74.366;2024-03-06T09:00:18;10.65;;;6.03;;
31224;SDS011;17847;31.524;74.366;2024-03-06T09:02:48;10.10;;;6.05;;
31224;SDS011;17847;31.524;74.366;2024-03-06T09:05:18;8.65;;;5.63;;
31224;SDS011;17847;31.524;74.366;2024-03-06T09:07:49;8.80;;;5.35;;
31224;SDS011;17847;31.524;74.366;2024-03-06T09:10:18;18.05;;;7.30;;
31224;SDS011;17847;31.524;74.366;2024-03-06T09:12:47;9.82;;;5.68;;
31224;SDS011;17847;31.524;74.366;2024-03-06T09:15:17;8.68;;;5.53;;
31224;SDS011;17847;31.524;74.366;2024-03-06T09:17:47;8.32;;;5.20;;
31224;SDS011;17847;31.524;74.366;2024-03-06T09:20:17;6.60;;;4.95;;
31224;SDS011;17847;31.524;74.366;2024-03-06T09:22:47;8.73;;;5.15;;
31224;SDS011;17847;31.524;74.366;2024-03-06T09:25:17;8.50;;;5.65;;
31224;SDS011;17847;31.524;74.366;2024-03-06T09:27:46;10.68;;;5.57;;
31224;SDS011;17847;31.524;74.366;2024-03-06T09:30:16;11.98;;;5.25;;
31224;SDS011;17847;31.524;74.366;2024-03-06T09:32:45;13.60;;;5.93;;
31224;SDS011;17847;31.524;74.366;2024-03-06T09:35:15;11.45;;;5.43;;
31224;SDS011;17847;31.524;74.366;2024-03-06T09:37:45;9.57;;;4.93;;
31224;SDS011;17847;31.524;74.366;2024-03-06T09:40:22;8.05;;;5.55;;
31224;SDS011;17847;31.524;74.366;2024-03-06T09:42:52;7.70;;;5.57;;
31224;SDS011;17847;31.524;74.366;2024-03-06T09:45:22;14.27;;;5.35;;
31224;SDS011;17847;31.524;74.366;2024-03-06T09:47:52;7.53;;;4.70;;
31224;SDS011;17847;31.524;74.366;2024-03-06T09:50:22;12.60;;;5.43;;
31224;SDS011;17847;31.524;74.366;2024-03-06T09:52:55;11.73;;;6.70;;
31224;SDS011;17847;31.524;74.366;2024-03-06T09:55:25;10.80;;;4.97;;
31224;SDS011;17847;31.524;74.366;2024-03-06T09:57:55;9.32;;;5.53;;
31224;SDS011;17847;31.524;74.366;2024-03-06T10:00:25;9.23;;;4.70;;
31224;SDS011;17847;31.524;74.366;2024-03-06T10:02:58;7.47;;;5.25;;
31224;SDS011;17847;31.524;74.366;2024-03-06T10:05:31;9.10;;;5.93;;
31224;SDS011;17847;31.524;74.366;2024-03-06T10:08:03;10.98;;;5.82;;
31224;SDS011;17847;31.524;74.366;2024-03-06T10:10:33;10.10;;;5.60;;
31224;SDS011;17847;31.524;74.366;2024-03-06T10:13:04;8.07;;;5.40;;
31224;SDS011;17847;31.524;74.366;2024-03-06T10:15:35;11.10;;;6.18;;
31224;SDS011;17847;31.524;74.366;2024-03-06T10:18:12;8.07;;;5.00;;
31224;SDS011;17847;31.524;74.366;2024-03-06T10:20:47;11.55;;;5.05;;
31224;SDS011;17847;31.524;74.366;2024-03-06T10:23:17;9.18;;;5.38;;
31224;SDS011;17847;31.524;74.366;2024-03-06T10:25:47;10.40;;;4.82;;
31224;SDS011;17847;31.524;74.366;2024-03-06T10:28:26;7.47;;;5.25;;
31224;SDS011;17847;31.524;74.366;2024-03-06T10:31:02;7.78;;;5.00;;
31224;SDS011;17847;31.524;74.366;2024-03-06T10:33:36;9.05;;;5.95;;
31224;SDS011;17847;31.524;74.366;2024-03-06T10:36:09;9.82;;;4.85;;
31224;SDS011;17847;31.524;74.366;2024-03-06T10:38:40;14.50;;;5.00;;
31224;SDS011;17847;31.524;74.366;2024-03-06T10:41:14;9.52;;;4.88;;
31224;SDS011;17847;31.524;74.366;2024-03-06T10:43:48;9.30;;;4.88;;
31224;SDS011;17847;31.524;74.366;2024-03-06T10:46:19;9.60;;;5.20;;
31224;SDS011;17847;31.524;74.366;2024-03-06T10:48:51;8.18;;;5.20;;
31224;SDS011;17847;31.524;74.366;2024-03-06T10:51:21;8.75;;;5.05;;
31224;SDS011;17847;31.524;74.366;2024-03-06T10:53:51;11.52;;;5.72;;
31224;SDS011;17847;31.524;74.366;2024-03-06T10:56:24;10.82;;;5.20;;
31224;SDS011;17847;31.524;74.366;2024-03-06T10:58:54;9.32;;;5.50;;
31224;SDS011;17847;31.524;74.366;2024-03-06T11:01:26;7.82;;;5.35;;
31224;SDS011;17847;31.524;74.366;2024-03-06T11:04:00;8.35;;;5.47;;
31224;SDS011;17847;31.524;74.366;2024-03-06T11:06:32;11.20;;;5.93;;
31224;SDS011;17847;31.524;74.366;2024-03-06T11:09:02;7.53;;;4.50;;
31224;SDS011;17847;31.524;74.366;2024-03-06T11:11:32;7.72;;;5.30;;
31224;SDS011;17847;31.524;74.366;2024-03-06T11:14:03;12.00;;;5.15;;
31224;SDS011;17847;31.524;74.366;2024-03-06T11:16:49;9.23;;;5.78;;
31224;SDS011;17847;31.524;74.366;2024-03-06T11:28:26;8.55;;;4.82;;
31224;SDS011;17847;31.524;74.366;2024-03-06T11:31:03;6.93;;;4.80;;
31224;SDS011;17847;31.524;74.366;2024-03-06T11:33:47;8.50;;;4.80;;
31224;SDS011;17847;31.524;74.366;2024-03-06T11:36:23;9.85;;;5.47;;
31224;SDS011;17847;31.524;74.366;2024-03-06T11:39:00;6.75;;;5.03;;
31224;SDS011;17847;31.524;74.366;2024-03-06T11:41:30;10.80;;;5.30;;
31224;SDS011;17847;31.524;74.366;2024-03-06T11:44:20;16.17;;;5.95;;
31224;SDS011;17847;31.524;74.366;2024-03-06T11:49:37;7.97;;;4.10;;
31224;SDS011;17847;31.524;74.366;2024-03-06T11:52:08;8.23;;;5.03;;
31224;SDS011;17847;31.524;74.366;2024-03-06T11:54:38;8.45;;;4.95;;
31224;SDS011;17847;31.524;74.366;2024-03-06T11:57:07;9.95;;;4.90;;
31224;SDS011;17847;31.524;74.366;2024-03-06T11:59:39;12.35;;;5.20;;
31224;SDS011;17847;31.524;74.366;2024-03-06T12:02:08;8.63;;;5.25;;
31224;SDS011;17847;31.524;74.366;2024-03-06T12:04:40;8.27;;;5.05;;
31224;SDS011;17847;31.524;74.366;2024-03-06T12:07:10;10.02;;;5.13;;
31224;SDS011;17847;31.524;74.366;2024-03-06T12:09:39;11.20;;;5.15;;
31224;SDS011;17847;31.524;74.366;2024-03-06T12:12:10;12.10;;;5.03;;
31224;SDS011;17847;31.524;74.366;2024-03-06T12:14:41;11.35;;;5.68;;
31224;SDS011;17847;31.524;74.366;2024-03-06T12:17:13;11.20;;;5.20;;
31224;SDS011;17847;31.524;74.366;2024-03-06T12:19:44;19.20;;;6.38;;
31224;SDS011;17847;31.524;74.366;2024-03-06T12:22:14;7.68;;;4.68;;
31224;SDS011;17847;31.524;74.366;2024-03-06T12:24:47;9.27;;;5.30;;
31224;SDS011;17847;31.524;74.366;2024-03-06T12:27:29;9.13;;;4.40;;
31224;SDS011;17847;31.524;74.366;2024-03-06T12:30:01;18.15;;;5.50;;
31224;SDS011;17847;31.524;74.366;2024-03-06T12:32:33;8.82;;;4.90;;
31224;SDS011;17847;31.524;74.366;2024-03-06T12:35:02;11.30;;;6.43;;
31224;SDS011;17847;31.524;74.366;2024-03-06T12:37:32;13.23;;;5.25;;
31224;SDS011;17847;31.524;74.366;2024-03-06T12:40:03;16.85;;;4.88;;
31224;SDS011;17847;31.524;74.366;2024-03-06T12:42:41;9.80;;;4.78;;
31224;SDS011;17847;31.524;74.366;2024-03-06T12:45:12;10.88;;;5.13;;
31224;SDS011;17847;31.524;74.366;2024-03-06T12:47:42;11.90;;;5.18;;
31224;SDS011;17847;31.524;74.366;2024-03-06T12:50:13;12.35;;;5.20;;
31224;SDS011;17847;31.524;74.366;2024-03-06T12:52:43;7.82;;;5.65;;
31224;SDS011;17847;31.524;74.366;2024-03-06T12:55:15;10.30;;;5.20;;
31224;SDS011;17847;31.524;74.366;2024-03-06T12:57:45;9.38;;;5.05;;
31224;SDS011;17847;31.524;74.366;2024-03-06T13:00:19;11.32;;;5.20;;
31224;SDS011;17847;31.524;74.366;2024-03-06T13:02:49;19.20;;;5.40;;
31224;SDS011;17847;31.524;74.366;2024-03-06T13:05:19;13.38;;;5.50;;
31224;SDS011;17847;31.524;74.366;2024-03-06T13:07:48;10.27;;;5.30;;
31224;SDS011;17847;31.524;74.366;2024-03-06T13:10:18;10.07;;;6.00;;
31224;SDS011;17847;31.524;74.366;2024-03-06T13:12:50;11.57;;;6.10;;
31224;SDS011;17847;31.524;74.366;2024-03-06T13:15:22;10.25;;;5.45;;
31224;SDS011;17847;31.524;74.366;2024-03-06T13:17:52;10.75;;;5.80;;
31224;SDS011;17847;31.524;74.366;2024-03-06T13:20:21;9.55;;;5.47;;
31224;SDS011;17847;31.524;74.366;2024-03-06T13:22:51;12.32;;;5.65;;
31224;SDS011;17847;31.524;74.366;2024-03-06T13:25:20;13.57;;;5.72;;
31224;SDS011;17847;31.524;74.366;2024-03-06T13:27:50;10.05;;;5.55;;
31224;SDS011;17847;31.524;74.366;2024-03-06T13:30:23;8.35;;;5.68;;
31224;SDS011;17847;31.524;74.366;2024-03-06T13:32:52;11.65;;;6.63;;
31224;SDS011;17847;31.524;74.366;2024-03-06T13:35:22;15.70;;;5.82;;
31224;SDS011;17847;31.524;74.366;2024-03-06T13:37:52;13.35;;;6.10;;
31224;SDS011;17847;31.524;74.366;2024-03-06T13:40:22;8.98;;;6.47;;
31224;SDS011;17847;31.524;74.366;2024-03-06T13:42:51;21.75;;;7.75;;
31224;SDS011;17847;31.524;74.366;2024-03-06T13:45:21;13.38;;;6.53;;
31224;SDS011;17847;31.524;74.366;2024-03-06T13:47:50;14.77;;;6.72;;
31224;SDS011;17847;31.524;74.366;2024-03-06T13:50:19;28.02;;;7.03;;
31224;SDS011;17847;31.524;74.366;2024-03-06T13:52:52;18.83;;;6.95;;
31224;SDS011;17847;31.524;74.366;2024-03-06T13:55:21;16.17;;;8.60;;
31224;SDS011;17847;31.524;74.366;2024-03-06T13:57:51;15.82;;;7.38;;
31224;SDS011;17847;31.524;74.366;2024-03-06T14:00:21;16.48;;;7.78;;
31224;SDS011;17847;31.524;74.366;2024-03-06T14:02:50;16.20;;;7.72;;
31224;SDS011;17847;31.524;74.366;2024-03-06T14:05:20;17.65;;;8.45;;
31224;SDS011;17847;31.524;74.366;2024-03-06T14:10:24;17.95;;;7.95;;
31224;SDS011;17847;31.524;74.366;2024-03-06T14:12:54;15.63;;;7.55;;
31224;SDS011;17847;31.524;74.366;2024-03-06T14:15:25;13.57;;;7.82;;
31224;SDS011;17847;31.524;74.366;2024-03-06T14:17:55;20.48;;;8.27;;
31224;SDS011;17847;31.524;74.366;2024-03-06T14:20:24;19.77;;;9.48;;
31224;SDS011;17847;31.524;74.366;2024-03-06T14:22:54;19.45;;;8.20;;
31224;SDS011;17847;31.524;74.366;2024-03-06T14:25:23;19.60;;;9.35;;
31224;SDS011;17847;31.524;74.366;2024-03-06T14:27:52;21.20;;;8.55;;
31224;SDS011;17847;31.524;74.366;2024-03-06T14:30:23;21.63;;;10.15;;
31224;SDS011;17847;31.524;74.366;2024-03-06T14:32:53;22.38;;;9.05;;
31224;SDS011;17847;31.524;74.366;2024-03-06T14:35:22;25.75;;;9.30;;
31224;SDS011;17847;31.524;74.366;2024-03-06T14:37:53;20.45;;;9.88;;
31224;SDS011;17847;31.524;74.366;2024-03-06T14:40:22;15.35;;;9.20;;
31224;SDS011;17847;31.524;74.366;2024-03-06T14:42:52;20.08;;;9.93;;
31224;SDS011;17847;31.524;74.366;2024-03-06T14:45:22;23.45;;;10.50;;
31224;SDS011;17847;31.524;74.366;2024-03-06T14:47:51;22.40;;;9.70;;
31224;SDS011;17847;31.524;74.366;2024-03-06T14:50:21;31.23;;;11.23;;
31224;SDS011;17847;31.524;74.366;2024-03-06T14:52:50;18.10;;;10.32;;
31224;SDS011;17847;31.524;74.366;2024-03-06T14:55:20;23.05;;;10.75;;
31224;SDS011;17847;31.524;74.366;2024-03-06T14:57:49;26.88;;;11.13;;